Time;durP1;ratioP1;P1;durP2;ratioP2;P2;SDS_P1;SDS_P2;PMS_P1;PMS_P2;Temp;Humidity;BMP_temperature;BMP_pressure;BME280_temperature;BME280_humidity;BME280_pressure;Samples;Min_cycle;Max_cycle;Signal;HPM_P1;HPM_P2
2021/07/14 00:01:54;;;;;;;11.45;10.05;;;;;;;24.22;61.64;100492.76;1834473;77;22175;-64
2021/07/14 00:04:46;;;;;;;10.88;9.78;;;;;;;24.21;61.56;100489.69;1897138;74;22123;-65
2021/07/14 00:07:19;;;;;;;11.10;9.35;;;;;;;24.15;61.55;100493.67;1852734;77;22575;-64
2021/07/14 00:09:52;;;;;;;11.28;10.03;;;;;;;24.05;61.67;100497.47;1790372;77;22186;-64
2021/07/14 00:12:28;;;;;;;10.90;9.90;;;;;;;23.99;61.75;100495.20;1818789;77;22186;-65
2021/07/14 00:22:07;;;;;;;12.98;10.03;;;;;;;23.95;62.00;100492.30;1820095;77;22701;-65
2021/07/14 00:23:26;;;;;;;11.30;10.18;;;;;;;24.01;62.13;100495.08;1820914;77;22178;-64
2021/07/14 00:26:18;;;;;;;11.80;10.55;;;;;;;24.00;62.21;100496.92;1830705;77;22143;-63
2021/07/14 00:28:51;;;;;;;11.55;10.40;;;;;;;24.00;62.17;100494.70;1814078;77;22194;-58
2021/07/14 00:31:44;;;;;;;10.95;9.80;;;;;;;24.04;62.07;100494.87;1843033;77;22221;-64
2021/07/14 00:34:17;;;;;;;11.35;10.13;;;;;;;23.94;62.23;100495.95;1825930;77;22205;-64
2021/07/14 00:36:50;;;;;;;11.03;9.75;;;;;;;23.90;62.30;100497.96;1828182;77;22543;-64
2021/07/14 00:39:42;;;;;;;11.55;9.73;;;;;;;23.88;62.40;100491.83;1801714;77;22262;-58
2021/07/14 00:42:35;;;;;;;12.10;10.82;;;;;;;23.73;62.87;100493.70;1816893;77;22171;-58
2021/07/14 00:45:27;;;;;;;11.85;10.28;;;;;;;23.73;62.89;100493.70;1830028;77;22147;-64
2021/07/14 00:48:01;;;;;;;14.93;10.95;;;;;;;23.76;62.79;100492.16;1843491;77;22660;-63
2021/07/14 00:50:35;;;;;;;13.95;10.58;;;;;;;23.72;62.89;100493.33;1823478;77;22197;-64
2021/07/14 00:53:08;;;;;;;14.73;10.93;;;;;;;23.70;62.99;100492.56;1823788;77;22637;-64
2021/07/14 00:56:00;;;;;;;12.03;10.58;;;;;;;23.78;62.80;100496.11;1834567;77;22690;-64
2021/07/14 00:58:33;;;;;;;12.53;10.20;;;;;;;23.74;62.82;100494.59;1817104;77;22626;-58
2021/07/14 01:01:26;;;;;;;11.30;10.15;;;;;;;23.68;63.03;100498.52;1852775;77;22159;-64
2021/07/14 01:04:19;;;;;;;13.22;11.03;;;;;;;23.71;62.81;100499.66;1829124;77;22229;-58
2021/07/14 01:07:28;;;;;;;13.58;10.55;;;;;;;23.75;62.74;100500.34;1834423;77;22172;-63
2021/07/14 01:10:27;;;;;;;14.75;11.00;;;;;;;23.73;62.76;100504.95;1819721;77;22185;-63
2021/07/14 01:13:35;;;;;;;11.48;10.18;;;;;;;23.70;62.85;100507.84;1821071;77;23636;-63
2021/07/14 01:16:16;;;;;;;12.37;10.40;;;;;;;23.70;62.92;100509.19;1834483;77;22164;-63
2021/07/14 01:19:46;;;;;;;11.68;9.50;;;;;;;23.74;62.74;100503.50;1796145;77;22226;-58
2021/07/14 01:22:49;;;;;;;11.30;10.18;;;;;;;23.77;62.64;100499.77;1829531;77;22546;-58
2021/07/14 01:25:36;;;;;;;11.68;10.53;;;;;;;23.78;62.55;100501.48;1852828;77;22175;-58
2021/07/14 01:28:09;;;;;;;11.93;10.63;;;;;;;23.70;62.79;100499.78;1821929;77;22174;-58
2021/07/14 01:31:02;;;;;;;12.80;10.45;;;;;;;23.66;62.80;100500.44;1833657;77;22120;-58
2021/07/14 01:33:38;;;;;;;11.48;9.20;;;;;;;23.52;63.16;100497.81;1835621;77;22198;-63
2021/07/14 01:36:31;;;;;;;11.38;10.23;;;;;;;23.48;63.32;100499.82;1827731;77;22123;-58
2021/07/14 01:39:05;;;;;;;11.50;10.35;;;;;;;23.54;63.23;100499.92;1811145;77;22159;-63
2021/07/14 01:41:57;;;;;;;12.35;10.50;;;;;;;23.51;63.10;100501.47;1852814;77;22615;-58
2021/07/14 01:44:30;;;;;;;10.88;9.83;;;;;;;23.51;63.04;100506.84;1822099;77;22170;-63
2021/07/14 01:47:04;;;;;;;11.75;10.25;;;;;;;23.48;63.07;100509.22;1838691;77;22181;-58
2021/07/14 01:49:56;;;;;;;11.35;10.20;;;;;;;24.15;61.25;100499.52;1832587;77;22131;-58
2021/07/14 01:52:29;;;;;;;12.82;10.15;;;;;;;23.48;62.89;100504.34;1832247;77;22179;-58
2021/07/14 01:55:06;;;;;;;11.30;10.03;;;;;;;23.40;63.12;100512.41;1833632;77;22115;-58
2021/07/14 01:57:58;;;;;;;14.93;12.68;;;;;;;23.40;63.14;100510.22;1814050;77;28147;-64
2021/07/14 02:00:32;;;;;;;13.13;11.00;;;;;;;23.39;63.23;100508.00;1852851;77;22582;-58
2021/07/14 02:06:02;;;;;;;13.78;12.37;;;;;;;23.37;63.31;100506.39;1824209;77;28205;-58
2021/07/14 02:08:54;;;;;;;12.20;10.85;;;;;;;23.41;63.27;100511.45;1813186;77;22170;-59
2021/07/14 02:11:33;;;;;;;11.65;10.48;;;;;;;23.39;63.38;100513.88;1852814;77;22159;-58
2021/07/14 02:14:06;;;;;;;11.93;10.05;;;;;;;23.41;63.31;100511.45;1816024;77;22174;-58
2021/07/14 02:17:02;;;;;;;11.00;9.90;;;;;;;23.43;63.25;100512.69;1852789;77;22195;-58
2021/07/14 02:19:36;;;;;;;12.15;10.05;;;;;;;23.43;63.21;100518.93;1804092;77;22234;-63
2021/07/14 02:22:28;;;;;;;11.68;10.48;;;;;;;23.43;63.27;100512.69;1828600;77;22198;-58
2021/07/14 02:25:01;;;;;;;12.37;10.32;;;;;;;23.41;63.17;100508.77;1830998;77;22155;-63
2021/07/14 02:27:35;;;;;;;11.97;10.50;;;;;;;23.38;63.24;100514.83;1831153;77;22607;-58
2021/07/14 02:30:18;;;;;;;13.58;10.50;;;;;;;23.32;63.38;100513.38;1848835;77;22578;-58
2021/07/14 02:32:58;;;;;;;19.73;11.28;;;;;;;23.31;63.37;100515.69;1827498;77;22166;-63
2021/07/14 02:35:50;;;;;;;11.12;9.40;;;;;;;23.37;63.40;100514.45;1834507;77;22180;-63
2021/07/14 02:38:37;;;;;;;12.95;10.70;;;;;;;23.30;63.50;100513.49;1820317;77;22170;-63
2021/07/14 02:41:45;;;;;;;13.45;10.43;;;;;;;23.30;63.50;100511.27;1819075;77;22549;-58
2021/07/14 02:44:20;;;;;;;12.23;11.03;;;;;;;23.32;63.66;100514.72;1807479;77;22196;-58
2021/07/14 02:46:55;;;;;;;15.38;13.13;;;;;;;23.34;63.55;100514.14;1818957;77;28017;-58
2021/07/14 02:49:47;;;;;;;12.28;11.08;;;;;;;23.41;63.61;100518.63;1826789;77;22155;-58
2021/07/14 02:52:24;;;;;;;12.37;11.05;;;;;;;23.45;63.43;100511.64;1832896;77;22176;-58
2021/07/14 02:55:17;;;;;;;13.53;10.78;;;;;;;23.43;63.53;100514.91;1834430;77;22136;-58
2021/07/14 02:57:53;;;;;;;13.18;10.95;;;;;;;23.44;63.58;100514.41;1825807;77;22174;-57
2021/07/14 03:00:27;;;;;;;14.13;12.65;;;;;;;23.33;63.97;100519.13;1818900;77;27995;-62
2021/07/14 03:03:22;;;;;;;12.10;11.00;;;;;;;23.33;64.14;100515.11;1820973;77;22168;-58
2021/07/14 03:05:58;;;;;;;12.88;10.80;;;;;;;23.36;64.14;100512.23;1834488;77;22180;-57
2021/07/14 03:08:32;;;;;;;12.30;11.00;;;;;;;23.45;63.98;100522.38;1807430;77;22202;-58
2021/07/14 03:11:24;;;;;;;12.93;11.73;;;;;;;23.49;63.93;100513.63;1850066;77;22673;-62
2021/07/14 03:13:57;;;;;;;14.85;10.78;;;;;;;23.51;63.86;100518.92;1827781;77;22199;-62
2021/07/14 03:16:32;;;;;;;16.67;10.85;;;;;;;23.54;63.91;100515.55;1839925;77;22112;-62
2021/07/14 03:19:05;;;;;;;20.95;13.58;;;;;;;23.59;63.89;100516.11;1795369;77;28526;-58
2021/07/14 03:21:58;;;;;;;13.83;10.55;;;;;;;23.67;63.93;100519.63;1852782;77;22131;-63
2021/07/14 03:24:32;;;;;;;12.98;11.68;;;;;;;23.79;63.73;100522.48;1791194;77;22633;-58
2021/07/14 03:27:24;;;;;;;13.72;11.03;;;;;;;23.72;64.01;100519.35;1791112;77;22162;-58
2021/07/14 03:29:57;;;;;;;16.30;11.50;;;;;;;23.83;63.96;100519.52;1834481;77;22175;-58
2021/07/14 03:32:50;;;;;;;14.75;10.58;;;;;;;23.92;63.84;100526.09;1808590;77;22218;-61
2021/07/14 03:35:23;;;;;;;14.85;10.70;;;;;;;23.98;63.86;100522.13;1830166;77;22173;-59
2021/07/14 03:37:57;;;;;;;12.45;11.22;;;;;;;24.00;63.80;100521.11;1826261;77;22198;-63
2021/07/14 03:40:32;;;;;;;13.38;12.07;;;;;;;24.09;63.71;100519.63;1834568;77;22172;-58
2021/07/14 03:43:05;;;;;;;15.00;11.48;;;;;;;24.17;63.84;100514.59;1818615;77;22617;-63
2021/07/14 03:45:41;;;;;;;14.25;11.73;;;;;;;24.23;63.79;100515.15;1808647;77;22182;-58
2021/07/14 03:48:34;;;;;;;13.50;11.95;;;;;;;24.30;63.72;100515.97;1835942;77;22217;-59
2021/07/14 03:51:07;;;;;;;14.23;12.78;;;;;;;24.39;63.75;100523.03;1830555;77;22586;-59
2021/07/14 03:53:40;;;;;;;13.60;12.25;;;;;;;24.46;63.73;100522.50;1813354;77;22205;-63
2021/07/14 03:56:13;;;;;;;14.25;12.60;;;;;;;24.57;63.69;100524.94;1834519;77;22592;-64
2021/07/14 03:58:47;;;;;;;14.10;12.75;;;;;;;24.65;63.57;100522.59;1814960;77;22206;-65
2021/07/14 04:01:40;;;;;;;14.35;12.93;;;;;;;24.75;63.61;100522.33;1827810;77;22563;-63
2021/07/14 04:04:13;;;;;;;13.88;12.47;;;;;;;24.84;63.62;100526.22;1825983;77;22178;-64
2021/07/14 04:06:51;;;;;;;25.02;12.78;;;;;;;24.93;63.41;100526.93;1834508;77;22176;-58
2021/07/14 04:09:45;;;;;;;20.60;12.33;;;;;;;25.07;63.40;100524.59;1816747;77;22171;-58
2021/07/14 04:12:19;;;;;;;18.95;14.20;;;;;;;25.20;63.01;100534.47;1798869;77;28432;-64
2021/07/14 04:14:52;;;;;;;15.08;13.03;;;;;;;25.35;63.04;100529.84;1828735;77;22155;-58
2021/07/14 04:17:26;;;;;;;14.73;11.78;;;;;;;25.49;62.71;100531.55;1833134;77;22611;-64
2021/07/14 04:20:18;;;;;;;16.80;11.83;;;;;;;25.62;62.51;100535.05;1845559;77;23123;-59
2021/07/14 04:22:51;;;;;;;13.80;11.48;;;;;;;25.77;62.19;100530.86;1847418;77;22581;-59
2021/07/14 04:25:30;;;;;;;14.10;12.70;;;;;;;25.90;61.75;100533.49;1819684;77;22223;-64
2021/07/14 04:28:05;;;;;;;14.83;11.35;;;;;;;26.03;61.63;100534.30;1842744;77;22201;-65
2021/07/14 04:30:39;;;;;;;12.85;11.60;;;;;;;26.18;61.49;100540.91;1811089;77;22696;-65
2021/07/14 04:33:12;;;;;;;14.25;12.20;;;;;;;26.32;61.12;100544.73;1806613;77;22220;-58
2021/07/14 04:36:05;;;;;;;13.80;11.78;;;;;;;26.48;60.90;100543.10;1834472;77;22171;-58
2021/07/14 04:38:38;;;;;;;12.98;11.60;;;;;;;26.65;60.43;100546.31;1834833;77;22201;-58
2021/07/14 04:41:31;;;;;;;15.13;13.60;;;;;;;26.83;60.00;100539.99;1851991;77;22119;-58
2021/07/14 04:44:05;;;;;;;14.87;13.25;;;;;;;26.99;59.81;100545.03;1810927;77;22210;-58
2021/07/14 04:46:58;;;;;;;17.15;13.28;;;;;;;27.18;59.44;100543.08;1852769;77;22558;-65
2021/07/14 04:49:31;;;;;;;16.42;12.13;;;;;;;27.37;59.31;100537.55;1782713;77;22626;-64
2021/07/14 04:52:23;;;;;;;12.88;11.57;;;;;;;27.61;58.96;100534.22;1819973;77;22120;-65
2021/07/14 04:54:56;;;;;;;15.20;12.10;;;;;;;27.82;58.48;100534.80;1820669;77;22178;-64
2021/07/14 04:57:36;;;;;;;12.98;11.68;;;;;;;27.99;57.94;100531.19;1827022;77;22634;-58
2021/07/14 05:00:10;;;;;;;13.72;12.43;;;;;;;28.15;57.64;100528.92;1834493;77;22176;-64
2021/07/14 05:03:03;;;;;;;13.68;11.20;;;;;;;28.35;57.44;100525.03;1829887;77;22290;-59
2021/07/14 05:05:51;;;;;;;14.30;10.80;;;;;;;28.54;57.30;100526.13;1852857;77;22539;-63
2021/07/14 05:08:44;;;;;;;13.28;10.75;;;;;;;28.75;56.59;100528.83;1815726;77;22229;-64
2021/07/14 05:11:17;;;;;;;12.25;10.95;;;;;;;28.90;56.21;100531.59;1834210;77;22179;-63
2021/07/14 05:14:09;;;;;;;13.50;12.10;;;;;;;29.07;55.67;100531.96;1807379;77;23236;-58
2021/07/14 05:16:42;;;;;;;12.70;11.40;;;;;;;29.17;55.30;100536.06;1852833;77;22179;-59
2021/07/14 05:19:17;;;;;;;14.15;11.12;;;;;;;29.35;54.96;100541.69;1808330;77;23245;-59
2021/07/14 05:21:50;;;;;;;13.05;11.83;;;;;;;29.52;54.12;100543.78;1827770;77;22140;-58
2021/07/14 05:24:43;;;;;;;12.58;10.80;;;;;;;29.84;53.62;100543.17;1819793;77;22225;-59
2021/07/14 05:27:16;;;;;;;14.50;11.75;;;;;;;30.06;53.18;100542.59;1833741;77;22204;-64
2021/07/14 05:29:49;;;;;;;13.83;10.70;;;;;;;30.37;52.69;100541.95;1828889;77;22614;-58
2021/07/14 05:32:22;;;;;;;13.85;12.33;;;;;;;30.61;52.24;100538.45;1819250;77;22164;-58
2021/07/14 05:35:14;;;;;;;14.23;11.33;;;;;;;30.79;51.54;100542.11;1834465;77;22140;-64
2021/07/14 05:37:48;;;;;;;12.15;10.23;;;;;;;30.99;51.26;100545.61;1846360;77;22226;-64
2021/07/14 05:40:40;;;;;;;11.57;10.38;;;;;;;31.21;50.76;100544.93;1828557;77;22191;-57
2021/07/14 05:43:13;;;;;;;12.45;10.70;;;;;;;31.35;50.56;100546.29;1803925;77;22175;-64
2021/07/14 05:45:47;;;;;;;12.35;11.15;;;;;;;31.66;50.05;100547.84;1834473;77;22199;-63
2021/07/14 05:48:20;;;;;;;14.23;11.00;;;;;;;31.70;50.02;100535.64;1817092;77;22170;-59
2021/07/14 05:51:12;;;;;;;12.03;10.72;;;;;;;32.09;49.40;100535.38;1834410;77;22161;-65
2021/07/14 05:53:45;;;;;;;11.90;9.63;;;;;;;32.38;48.68;100539.73;1805787;77;22210;-65
2021/07/14 05:56:18;;;;;;;10.53;9.08;;;;;;;32.59;48.37;100539.38;1834201;77;22192;-64
2021/07/14 05:59:30;;;;;;;12.53;9.58;;;;;;;32.98;47.44;100536.77;1804342;77;22262;-59
2021/07/14 06:02:04;;;;;;;11.03;9.18;;;;;;;33.22;47.03;100533.30;1812734;77;22618;-65
2021/07/14 06:04:37;;;;;;;13.30;10.25;;;;;;;33.44;46.32;100534.27;1810771;77;22223;-64
2021/07/14 06:07:11;;;;;;;10.80;9.25;;;;;;;33.70;45.72;100540.99;1810026;77;22602;-65
2021/07/14 06:09:45;;;;;;;10.80;8.50;;;;;;;33.97;45.40;100532.72;1819579;77;22241;-58
2021/07/14 06:12:18;;;;;;;10.15;9.15;;;;;;;34.17;45.01;100534.60;1848086;77;22649;-58
2021/07/14 06:15:11;;;;;;;11.33;9.10;;;;;;;34.38;44.06;100532.19;1806797;77;22174;-63
2021/07/14 06:17:44;;;;;;;14.85;9.98;;;;;;;34.64;43.52;100539.88;1826063;77;22230;-58
2021/07/14 06:20:18;;;;;;;13.18;8.98;;;;;;;34.88;43.78;100543.08;1834380;77;22229;-66
2021/07/14 06:22:51;;;;;;;12.88;9.25;;;;;;;35.08;43.50;100536.72;1826081;77;22219;-66
2021/07/14 06:25:24;;;;;;;13.35;9.33;;;;;;;35.25;43.13;100539.41;1811242;77;22217;-66
2021/07/14 06:28:00;;;;;;;12.73;8.40;;;;;;;35.45;42.38;100538.45;1816178;77;22205;-66
2021/07/14 06:30:51;;;;;;;13.00;7.78;;;;;;;35.68;41.72;100537.16;1815447;77;22190;-58
2021/07/14 06:33:24;;;;;;;10.30;7.55;;;;;;;35.92;41.65;100536.64;1814349;77;22171;-66
2021/07/14 06:35:57;;;;;;;10.58;7.80;;;;;;;36.12;40.96;100539.77;1822475;77;22182;-58
2021/07/14 06:38:32;;;;;;;11.00;7.92;;;;;;;36.35;40.55;100534.80;1803928;77;22246;-58
2021/07/14 06:41:05;;;;;;;9.90;7.50;;;;;;;36.71;39.63;100540.11;1819539;77;22195;-58
2021/07/14 06:43:41;;;;;;;9.98;7.83;;;;;;;36.93;39.30;100536.13;1802323;77;22689;-58
2021/07/14 06:46:33;;;;;;;10.08;7.42;;;;;;;37.11;38.83;100537.97;1815681;77;22152;-66
2021/07/14 06:49:09;;;;;;;9.55;7.30;;;;;;;37.28;38.41;100543.27;1795330;77;22633;-59
2021/07/14 06:52:01;;;;;;;11.68;7.85;;;;;;;37.50;38.24;100545.58;1813805;77;22138;-58
2021/07/14 06:54:38;;;;;;;10.18;7.70;;;;;;;37.66;37.87;100543.11;1821910;77;22209;-67
2021/07/14 06:57:29;;;;;;;13.33;8.60;;;;;;;37.93;37.74;100540.16;1807768;77;27938;-68
2021/07/14 07:00:06;;;;;;;13.83;8.08;;;;;;;38.09;37.19;100540.41;1826895;77;22178;-66
2021/07/14 07:02:40;;;;;;;11.65;7.83;;;;;;;38.18;37.20;100541.16;1817493;77;22163;-58
2021/07/14 07:05:32;;;;;;;12.50;7.90;;;;;;;38.52;36.83;100538.17;1852716;77;22164;-58
2021/07/14 07:08:06;;;;;;;12.55;8.08;;;;;;;38.79;36.08;100538.88;1820365;77;22218;-67
2021/07/14 07:10:40;;;;;;;9.73;7.95;;;;;;;39.00;35.74;100543.99;1818109;77;22618;-66
2021/07/14 07:13:16;;;;;;;10.60;7.83;;;;;;;39.16;35.52;100541.42;1819660;77;22185;-58
2021/07/14 07:16:08;;;;;;;8.63;7.72;;;;;;;39.26;35.26;100541.90;1825613;77;22176;-67
2021/07/14 07:18:42;;;;;;;9.35;7.35;;;;;;;39.51;34.17;100541.41;1801688;77;22707;-67
2021/07/14 07:21:34;;;;;;;10.78;7.03;;;;;;;39.52;33.27;100545.31;1829044;77;22179;-67
2021/07/14 07:24:07;;;;;;;9.50;6.70;;;;;;;39.52;33.98;100549.99;1810220;77;22171;-58
2021/07/14 07:26:41;;;;;;;10.60;7.42;;;;;;;39.77;33.75;100552.20;1833224;77;22170;-58
2021/07/14 07:29:15;;;;;;;10.88;6.87;;;;;;;40.00;33.51;100551.81;1806669;77;22705;-67
2021/07/14 07:32:07;;;;;;;10.13;7.10;;;;;;;40.23;33.37;100554.70;1828572;77;22171;-67
2021/07/14 07:34:42;;;;;;;11.33;7.58;;;;;;;40.36;33.21;100545.62;1820178;77;22189;-58
2021/07/14 07:37:16;;;;;;;15.10;8.60;;;;;;;40.49;32.33;100543.38;1818917;77;27996;-66
2021/07/14 07:39:49;;;;;;;11.88;6.50;;;;;;;40.48;31.89;100545.81;1842924;77;22305;-59
2021/07/14 07:42:22;;;;;;;9.98;6.95;;;;;;;40.59;31.57;100542.41;1852095;77;22575;-68
2021/07/14 07:44:57;;;;;;;15.30;6.80;;;;;;;40.77;31.77;100543.16;1814847;77;22586;-58
2021/07/14 07:47:30;;;;;;;11.40;7.10;;;;;;;40.93;32.11;100547.36;1832164;77;22664;-67
2021/07/14 07:50:04;;;;;;;11.25;6.53;;;;;;;41.16;31.38;100549.64;1805487;77;23175;-59
2021/07/14 07:52:56;;;;;;;18.50;7.15;;;;;;;41.50;31.01;100546.74;1820217;77;22217;-69
2021/07/14 07:55:30;;;;;;;13.85;6.45;;;;;;;41.86;30.80;100543.03;1852731;77;22174;-59
2021/07/14 07:58:22;;;;;;;6.67;5.12;;;;;;;42.06;30.31;100548.44;1820116;77;22182;-67
2021/07/14 08:00:55;;;;;;;8.73;4.65;;;;;;;42.17;29.69;100551.88;1852818;77;22328;-59
2021/07/14 08:03:47;;;;;;;11.35;4.40;;;;;;;42.36;28.64;100545.86;1821379;77;22685;-58
2021/07/14 08:06:20;;;;;;;7.42;4.62;;;;;;;42.45;28.54;100550.58;1834377;77;22365;-58
2021/07/14 08:09:13;;;;;;;7.42;4.55;;;;;;;42.58;28.34;100548.25;1824335;77;22184;-67
2021/07/14 08:11:46;;;;;;;7.83;5.00;;;;;;;42.83;28.45;100547.38;1828916;77;22317;-58
2021/07/14 08:14:19;;;;;;;7.70;5.12;;;;;;;43.03;28.09;100547.14;1807449;77;22400;-67
2021/07/14 08:16:52;;;;;;;8.18;5.60;;;;;;;43.05;27.85;100543.61;1834396;77;22345;-59
2021/07/14 08:19:26;;;;;;;10.25;5.28;;;;;;;43.20;27.86;100548.74;1823755;77;22360;-58
2021/07/14 08:21:59;;;;;;;7.10;5.10;;;;;;;43.29;27.89;100549.84;1819286;77;22150;-58
2021/07/14 08:24:51;;;;;;;5.87;4.60;;;;;;;43.50;27.10;100544.34;1852647;77;22191;-68
2021/07/14 08:27:25;;;;;;;10.88;4.58;;;;;;;43.75;26.49;100542.84;1835707;77;23210;-59
2021/07/14 08:30:18;;;;;;;6.53;4.30;;;;;;;44.00;26.27;100547.34;1831034;77;22110;-68
2021/07/14 08:32:51;;;;;;;6.03;3.83;;;;;;;44.23;25.89;100542.41;1845546;77;22316;-68
2021/07/14 08:35:26;;;;;;;7.35;4.33;;;;;;;44.37;25.80;100545.81;1852735;77;22528;-69
2021/07/14 08:38:18;;;;;;;13.20;4.95;;;;;;;44.50;25.80;100536.97;1816881;77;22108;-68
2021/07/14 08:40:52;;;;;;;12.73;5.12;;;;;;;44.66;25.43;100540.41;1819772;77;22273;-69
2021/07/14 08:43:44;;;;;;;8.83;4.40;;;;;;;44.81;25.44;100532.95;1833513;77;22323;-58
2021/07/14 08:46:17;;;;;;;8.85;4.05;;;;;;;44.77;25.46;100534.53;1841477;77;22075;-58
2021/07/14 08:48:53;;;;;;;6.78;4.08;;;;;;;44.88;25.27;100534.80;1807261;77;22308;-69
2021/07/14 08:51:26;;;;;;;9.80;4.45;;;;;;;45.00;24.76;100532.28;1852776;77;22144;-68
2021/07/14 08:53:59;;;;;;;10.95;3.62;;;;;;;44.92;22.36;100535.99;1829861;77;22131;-70
2021/07/14 08:56:33;;;;;;;7.78;3.72;;;;;;;44.53;24.08;100537.34;1833306;77;22117;-59
2021/07/14 08:59:07;;;;;;;6.90;3.33;;;;;;;44.59;24.54;100534.69;1828216;77;22174;-69
2021/07/14 09:01:40;;;;;;;6.62;3.40;;;;;;;44.92;24.07;100529.05;1831389;77;22667;-69
2021/07/14 09:04:13;;;;;;;5.42;3.02;;;;;;;45.23;23.71;100530.53;1797273;77;22610;-70
2021/07/14 09:06:46;;;;;;;5.85;3.20;;;;;;;45.46;22.91;100527.94;1808699;77;22260;-69
2021/07/14 09:09:19;;;;;;;8.85;3.72;;;;;;;45.68;22.74;100528.93;1792982;77;22582;-69
2021/07/14 09:11:58;;;;;;;8.80;3.35;;;;;;;45.78;22.43;100528.82;1852612;77;22719;-59
2021/07/14 09:14:37;;;;;;;12.80;3.90;;;;;;;45.93;22.38;100527.67;1803981;77;22316;-70
2021/07/14 09:17:24;;;;;;;9.40;3.40;;;;;;;46.02;21.90;100527.56;1833587;77;22251;-70
2021/07/14 09:20:23;;;;;;;7.90;3.17;;;;;;;46.10;21.20;100525.48;1834337;77;22275;-70
2021/07/14 09:23:20;;;;;;;8.33;3.20;;;;;;;46.25;21.26;100523.49;1819738;77;22749;-58
2021/07/14 09:26:13;;;;;;;6.03;3.10;;;;;;;46.34;20.94;100526.14;1820461;77;22134;-59
2021/07/14 09:28:46;;;;;;;6.22;3.30;;;;;;;46.20;21.03;100519.23;1815049;77;22336;-59
2021/07/14 09:31:38;;;;;;;6.60;3.02;;;;;;;46.24;21.23;100524.59;1834378;77;22311;-58
2021/07/14 09:34:28;;;;;;;6.90;2.87;;;;;;;46.46;21.46;100519.11;1800886;77;22131;-59
2021/07/14 09:37:16;;;;;;;4.75;2.65;;;;;;;46.77;21.09;100520.38;1834411;77;22436;-70
2021/07/14 09:39:50;;;;;;;4.97;2.70;;;;;;;46.99;19.91;100522.91;1834585;77;22129;-59
2021/07/14 09:42:23;;;;;;;4.67;2.67;;;;;;;46.75;20.11;100517.02;1838325;77;22681;-58
2021/07/14 09:44:57;;;;;;;4.53;2.58;;;;;;;46.68;20.39;100518.31;1827428;77;22254;-59
2021/07/14 09:47:55;;;;;;;7.05;2.65;;;;;;;46.74;20.66;100518.67;1840528;78;22336;-59
2021/07/14 09:50:41;;;;;;;3.52;2.65;;;;;;;46.89;20.88;100527.80;1850603;77;22305;-59
2021/07/14 09:53:21;;;;;;;4.70;2.77;;;;;;;47.13;20.73;100520.56;1821917;77;22312;-59
2021/07/14 09:56:02;;;;;;;7.47;2.65;;;;;;;47.22;20.10;100523.20;1819604;77;22221;-58
2021/07/14 09:59:14;;;;;;;4.85;2.30;;;;;;;47.38;19.75;100526.17;1812314;77;22562;-70
2021/07/14 10:01:53;;;;;;;6.80;2.77;;;;;;;47.65;19.67;100527.59;1819842;77;22081;-70
2021/07/14 10:04:42;;;;;;;3.58;2.42;;;;;;;47.80;19.43;100525.50;1788529;77;22155;-70
2021/07/14 10:07:24;;;;;;;6.95;2.70;;;;;;;47.72;19.21;100520.40;1848109;77;22120;-59
2021/07/14 10:10:17;;;;;;;4.00;2.25;;;;;;;47.84;19.16;100524.40;1841861;78;22211;-71
2021/07/14 10:13:10;;;;;;;5.65;3.02;;;;;;;48.09;18.74;100519.08;1837726;77;22135;-71
2021/07/14 10:15:49;;;;;;;6.70;2.55;;;;;;;48.11;18.60;100515.18;1842510;77;22124;-70
2021/07/14 10:18:22;;;;;;;4.83;2.60;;;;;;;47.95;18.36;100511.66;1835820;77;22562;-70
2021/07/14 10:21:18;;;;;;;5.03;2.30;;;;;;;47.46;18.89;100514.56;1834152;77;22097;-69
2021/07/14 10:23:55;;;;;;;5.30;2.33;;;;;;;47.31;18.87;100518.00;1796798;78;22166;-58
2021/07/14 10:26:28;;;;;;;6.50;2.87;;;;;;;47.20;19.17;100517.02;1834364;77;22145;-58
2021/07/14 10:29:06;;;;;;;5.45;2.72;;;;;;;47.18;18.67;100516.45;1811446;77;22594;-58
2021/07/14 10:31:40;;;;;;;7.08;2.98;;;;;;;47.27;18.88;100518.23;1834161;77;22137;-58
2021/07/14 10:34:20;;;;;;;5.05;2.83;;;;;;;47.35;18.91;100514.45;1793755;77;22209;-59
2021/07/14 10:36:53;;;;;;;4.72;2.70;;;;;;;47.42;18.47;100509.22;1817831;77;22083;-70
2021/07/14 10:39:46;;;;;;;7.67;2.95;;;;;;;47.43;18.16;100508.12;1916168;74;22091;-69
2021/07/14 10:42:21;;;;;;;5.95;2.70;;;;;;;47.49;18.31;100506.50;1835926;78;22064;-58
2021/07/14 10:45:33;;;;;;;4.20;2.42;;;;;;;47.44;18.50;100505.05;1824020;77;22240;-59
2021/07/14 10:48:07;;;;;;;4.50;2.52;;;;;;;47.47;18.58;100509.28;1831953;78;22578;-70
2021/07/14 10:50:40;;;;;;;3.65;2.80;;;;;;;47.34;18.91;100503.55;1842500;78;22093;-71
2021/07/14 10:53:33;;;;;;;5.95;2.72;;;;;;;47.12;19.02;100493.81;1803763;77;22146;-59
2021/07/14 10:56:09;;;;;;;5.37;3.20;;;;;;;47.19;19.62;100491.13;1820933;77;22102;-58
2021/07/14 10:59:03;;;;;;;5.22;2.87;;;;;;;46.89;17.86;100489.66;1807248;77;22155;-69
2021/07/14 11:01:55;;;;;;;6.40;2.80;;;;;;;46.50;19.50;100491.06;1827274;77;22097;-70
2021/07/14 11:04:35;;;;;;;5.35;2.70;;;;;;;46.86;19.51;100491.56;1822495;77;23379;-70
2021/07/14 11:07:08;;;;;;;6.67;2.85;;;;;;;47.18;18.89;100495.02;1852732;77;22690;-72
2021/07/14 11:09:47;;;;;;;5.62;2.80;;;;;;;47.37;18.51;100500.24;1820026;77;22174;-72
2021/07/14 11:12:31;;;;;;;5.50;2.50;;;;;;;47.14;19.07;100493.86;1822854;77;22122;-72
2021/07/14 11:15:06;;;;;;;5.92;2.90;;;;;;;46.84;19.65;100493.77;1827360;77;22100;-71
2021/07/14 11:17:40;;;;;;;3.83;2.62;;;;;;;46.79;19.21;100492.84;1838179;77;22124;-59
2021/07/14 11:20:14;;;;;;;4.60;2.87;;;;;;;46.39;19.46;100490.05;1833550;77;22113;-59
2021/07/14 11:23:27;;;;;;;3.65;2.85;;;;;;;46.41;19.92;100487.86;1818316;78;22328;-59
2021/07/14 11:26:02;;;;;;;4.58;3.05;;;;;;;46.52;19.17;100488.87;1833960;77;23335;-72
2021/07/14 11:28:36;;;;;;;7.35;2.75;;;;;;;46.49;19.50;100483.81;1805867;77;22368;-72
2021/07/14 11:31:33;;;;;;;3.55;2.80;;;;;;;46.82;19.17;100486.75;1828922;77;22682;-59
2021/07/14 11:34:29;;;;;;;8.65;2.95;;;;;;;47.25;18.35;100485.65;1810354;77;22535;-73
2021/07/14 11:37:21;;;;;;;6.92;3.10;;;;;;;47.63;17.78;100483.25;1852006;77;22056;-74
2021/07/14 11:39:54;;;;;;;5.62;3.12;;;;;;;47.84;18.44;100485.36;1842406;77;22092;-59
2021/07/14 11:42:27;;;;;;;6.50;3.15;;;;;;;48.05;18.53;100484.99;1851129;77;23426;-59
2021/07/14 11:45:10;;;;;;;7.42;3.40;;;;;;;48.12;18.43;100482.81;1852725;77;22133;-59
2021/07/14 11:48:10;;;;;;;6.03;2.80;;;;;;;47.64;17.80;100482.14;1789812;77;22159;-69
2021/07/14 11:51:08;;;;;;;5.85;2.80;;;;;;;46.80;18.91;100484.78;1834353;77;22105;-59
2021/07/14 11:54:01;;;;;;;10.40;2.75;;;;;;;46.22;19.61;100483.14;1829687;77;22181;-58
2021/07/14 11:56:53;;;;;;;5.10;3.50;;;;;;;45.74;20.54;100483.45;1819914;77;22156;-58
2021/07/14 11:59:28;;;;;;;5.92;3.35;;;;;;;45.31;20.94;100482.09;1800569;77;22114;-59
2021/07/14 12:02:04;;;;;;;4.15;2.83;;;;;;;44.93;21.02;100480.21;1852661;77;22132;-59
2021/07/14 12:04:39;;;;;;;8.20;3.33;;;;;;;44.52;21.27;100482.94;1820935;77;22447;-59
2021/07/14 12:07:13;;;;;;;6.90;3.10;;;;;;;44.07;21.48;100487.69;1819659;77;22132;-59
2021/07/14 12:09:47;;;;;;;6.40;3.15;;;;;;;43.61;22.26;100493.69;1910206;74;22086;-59
2021/07/14 12:12:22;;;;;;;7.35;3.55;;;;;;;43.07;23.97;100487.47;1852295;77;22714;-71
2021/07/14 12:15:15;;;;;;;11.78;3.15;;;;;;;42.77;24.92;100484.09;1830793;77;22294;-71
2021/07/14 12:17:49;;;;;;;9.33;3.55;;;;;;;42.67;25.01;100482.92;1816978;77;22332;-58
2021/07/14 12:20:50;;;;;;;5.25;3.00;;;;;;;42.76;23.42;100481.54;1832385;77;22112;-58
2021/07/14 12:23:24;;;;;;;4.35;2.90;;;;;;;42.81;22.67;100474.78;1838167;77;22332;-58
2021/07/14 12:26:03;;;;;;;10.08;4.33;;;;;;;42.99;23.40;100473.12;1822638;77;22296;-58
2021/07/14 12:31:13;;;;;;;5.80;3.10;;;;;;;43.44;22.72;100481.05;1818766;77;28463;-58
2021/07/14 12:33:54;;;;;;;3.70;2.42;;;;;;;43.85;22.44;100485.44;1811246;77;22685;-58